Time;durP1;ratioP1;P1;durP2;ratioP2;P2;SDS_P1;SDS_P2;PMS_P1;PMS_P2;Temp;Humidity;BMP_temperature;BMP_pressure;BME280_temperature;BME280_humidity;BME280_pressure;Samples;Min_cycle;Max_cycle;Signal;HPM_P1;HPM_P2
2021/08/28 00:01:20;;;;;;;9.50;7.33;;;15.40;99.90;;;;;;5114043;28;20621;-65
2021/08/28 00:03:46;;;;;;;8.80;7.00;;;15.30;99.90;;;;;;5114109;28;20207;-65
2021/08/28 00:06:12;;;;;;;7.80;7.00;;;15.30;99.90;;;;;;5113864;28;20215;-65
2021/08/28 00:08:37;;;;;;;7.43;6.73;;;15.30;99.90;;;;;;5113964;28;20168;-66
2021/08/28 00:11:03;;;;;;;10.57;7.23;;;15.30;99.90;;;;;;5113763;28;20187;-65
2021/08/28 00:13:29;;;;;;;7.30;6.10;;;15.30;99.90;;;;;;5113864;28;20184;-67
2021/08/28 00:15:54;;;;;;;9.70;7.93;;;15.30;99.90;;;;;;5113888;28;20200;-66
2021/08/28 00:18:20;;;;;;;8.70;6.60;;;15.30;99.90;;;;;;5113780;28;20255;-66
2021/08/28 00:20:46;;;;;;;6.67;5.90;;;15.30;99.90;;;;;;5113633;28;20191;-65
2021/08/28 00:23:11;;;;;;;7.00;6.30;;;15.30;99.90;;;;;;5113623;28;20409;-65
2021/08/28 00:25:37;;;;;;;6.10;5.50;;;15.30;99.90;;;;;;5146605;27;20681;-65
2021/08/28 00:28:03;;;;;;;7.33;6.40;;;15.30;99.90;;;;;;5113739;28;20295;-65
2021/08/28 00:30:29;;;;;;;6.43;5.43;;;15.30;99.90;;;;;;5113660;28;20199;-66
2021/08/28 00:32:56;;;;;;;8.47;6.10;;;15.20;99.90;;;;;;5117469;28;20414;-65
2021/08/28 00:35:21;;;;;;;6.53;5.57;;;15.20;99.90;;;;;;5117364;28;20203;-65
2021/08/28 00:37:47;;;;;;;8.33;6.70;;;15.10;99.90;;;;;;5117995;28;20412;-66
2021/08/28 00:40:13;;;;;;;8.20;6.80;;;15.10;99.90;;;;;;5117248;28;20200;-66
2021/08/28 00:42:48;;;;;;;8.90;6.23;;;15.00;99.90;;;;;;5150771;27;20184;-66
2021/08/28 00:45:13;;;;;;;10.10;6.67;;;14.90;99.90;;;;;;5117108;28;20805;-66
2021/08/28 00:47:39;;;;;;;7.37;5.80;;;14.80;99.90;;;;;;5117646;28;20507;-65
2021/08/28 00:50:06;;;;;;;8.40;5.70;;;14.80;99.90;;;;;;5117126;28;20608;-65
2021/08/28 00:52:31;;;;;;;7.63;6.10;;;14.70;99.90;;;;;;5117514;28;20659;-66
2021/08/28 00:54:57;;;;;;;6.70;6.00;;;14.70;99.90;;;;;;5116997;28;20432;-65
2021/08/28 00:57:22;;;;;;;7.47;6.10;;;14.70;99.90;;;;;;5117439;28;20220;-65
2021/08/28 00:59:48;;;;;;;6.80;5.80;;;14.70;99.90;;;;;;5117007;28;20192;-65
2021/08/28 01:02:16;;;;;;;7.40;5.80;;;14.70;99.90;;;;;;5117253;28;20510;-65
2021/08/28 01:04:50;;;;;;;8.13;5.90;;;14.70;99.90;;;;;;5116770;28;20288;-65
2021/08/28 01:07:35;;;;;;;7.33;5.40;;;14.70;99.90;;;;;;5117246;28;20412;-65
2021/08/28 01:10:03;;;;;;;8.03;6.00;;;14.60;99.90;;;;;;5116756;28;20428;-65
2021/08/28 01:12:40;;;;;;;6.40;5.13;;;14.60;99.90;;;;;;5117117;28;20475;-65
2021/08/28 01:15:08;;;;;;;6.93;6.23;;;14.60;99.90;;;;;;5116671;28;20416;-66
2021/08/28 01:17:37;;;;;;;8.97;6.73;;;14.50;99.90;;;;;;5117200;28;20482;-66
2021/08/28 01:20:28;;;;;;;9.17;6.03;;;14.50;99.90;;;;;;5116515;28;20459;-65
2021/08/28 01:22:54;;;;;;;8.73;6.37;;;14.50;99.90;;;;;;5115252;28;20412;-65
2021/08/28 01:25:21;;;;;;;9.27;6.20;;;14.50;99.90;;;;;;5116299;28;20467;-65
2021/08/28 01:27:54;;;;;;;7.40;5.70;;;14.40;99.90;;;;;;5116243;28;20464;-65
2021/08/28 01:30:21;;;;;;;7.10;6.20;;;14.40;99.90;;;;;;5116378;28;20901;-65
2021/08/28 01:32:47;;;;;;;7.17;6.10;;;14.40;99.90;;;;;;5116890;28;20435;-65
2021/08/28 01:35:14;;;;;;;8.87;5.83;;;14.40;99.90;;;;;;5116261;28;20428;-66
2021/08/28 01:37:41;;;;;;;10.77;5.43;;;14.30;99.90;;;;;;5116696;28;20426;-65
2021/08/28 01:40:08;;;;;;;6.53;5.23;;;14.40;99.90;;;;;;5116110;28;20424;-65
2021/08/28 01:42:35;;;;;;;6.40;5.53;;;14.30;99.90;;;;;;5115434;28;20487;-65
2021/08/28 01:45:03;;;;;;;7.67;5.70;;;14.30;99.90;;;;;;5115990;28;20591;-65
2021/08/28 01:47:29;;;;;;;7.20;5.10;;;14.30;99.90;;;;;;5149396;27;20415;-65
2021/08/28 01:49:55;;;;;;;10.37;5.97;;;14.30;99.90;;;;;;5115980;28;20463;-67
2021/08/28 01:52:21;;;;;;;7.67;6.13;;;14.30;99.90;;;;;;5115856;28;20435;-65
2021/08/28 01:54:49;;;;;;;6.37;5.17;;;14.30;99.90;;;;;;5115890;28;20440;-65
2021/08/28 01:57:15;;;;;;;6.40;5.03;;;14.30;99.90;;;;;;5116284;28;20740;-67
2021/08/28 01:59:41;;;;;;;6.87;5.57;;;14.20;99.90;;;;;;5115764;28;20424;-65
2021/08/28 02:02:07;;;;;;;7.73;6.00;;;14.20;99.90;;;;;;5116047;27;20411;-66
2021/08/28 02:04:38;;;;;;;9.33;5.93;;;14.10;99.90;;;;;;5114257;28;20522;-65
2021/08/28 02:07:29;;;;;;;8.30;5.77;;;14.10;99.90;;;;;;5115937;28;20633;-65
2021/08/28 02:10:05;;;;;;;7.13;5.90;;;14.10;99.90;;;;;;5087178;28;20809;-65
2021/08/28 02:12:44;;;;;;;7.47;6.00;;;14.10;99.90;;;;;;5115943;28;20976;-65
2021/08/28 02:15:40;;;;;;;8.00;6.03;;;14.10;99.90;;;;;;5115409;28;20423;-65
2021/08/28 02:18:21;;;;;;;6.97;5.80;;;14.10;99.90;;;;;;5115421;28;20506;-65
2021/08/28 02:20:56;;;;;;;7.83;5.87;;;14.00;99.90;;;;;;5148550;27;20485;-65
2021/08/28 02:23:40;;;;;;;7.10;6.23;;;13.90;99.90;;;;;;5115308;28;20793;-65
2021/08/28 02:26:19;;;;;;;6.47;5.80;;;13.90;99.90;;;;;;5113605;28;21000;-65
2021/08/28 02:28:58;;;;;;;8.60;6.40;;;13.80;99.90;;;;;;5114025;28;20511;-65
2021/08/28 02:31:26;;;;;;;9.50;6.37;;;13.80;99.90;;;;;;5115385;28;20428;-65
2021/08/28 02:33:54;;;;;;;7.00;6.10;;;13.70;99.90;;;;;;5115107;28;20932;-65
2021/08/28 02:36:21;;;;;;;8.10;5.83;;;13.70;99.90;;;;;;5115110;28;20431;-65
2021/08/28 02:38:48;;;;;;;6.43;5.10;;;13.70;99.90;;;;;;5115057;28;20392;-65
2021/08/28 02:41:52;;;;;;;7.20;6.13;;;13.70;99.90;;;;;;5115108;28;20448;-66
2021/08/28 02:44:19;;;;;;;7.13;5.80;;;13.60;99.90;;;;;;5114860;27;20810;-65
2021/08/28 02:46:46;;;;;;;6.40;5.00;;;13.70;99.90;;;;;;5115120;28;20412;-65
2021/08/28 02:49:13;;;;;;;5.43;4.93;;;13.60;99.90;;;;;;5114795;27;20427;-65
2021/08/28 02:51:40;;;;;;;6.33;4.83;;;13.60;99.90;;;;;;5115128;28;20419;-65
2021/08/28 02:54:10;;;;;;;6.90;5.10;;;13.60;99.90;;;;;;5114216;28;20416;-67
2021/08/28 02:56:35;;;;;;;7.00;4.95;;;13.50;99.90;;;;;;5114860;28;20917;-65
2021/08/28 02:59:01;;;;;;;5.90;4.43;;;13.50;99.90;;;;;;5113371;28;20207;-66
2021/08/28 03:01:28;;;;;;;5.63;4.67;;;13.40;99.90;;;;;;5114873;28;20713;-65
2021/08/28 03:03:54;;;;;;;5.00;4.23;;;13.40;99.90;;;;;;5114727;28;20168;-65
2021/08/28 03:06:20;;;;;;;4.50;4.10;;;13.30;99.90;;;;;;5114281;28;20473;-65
2021/08/28 03:08:47;;;;;;;4.40;3.78;;;13.20;99.90;;;;;;5114519;28;20766;-65
2021/08/28 03:11:13;;;;;;;8.32;3.88;;;13.10;99.90;;;;;;5114573;27;20194;-65
2021/08/28 03:13:39;;;;;;;12.93;3.75;;;13.10;99.90;;;;;;5114384;28;20190;-65
2021/08/28 03:16:05;;;;;;;3.47;3.17;;;13.00;99.90;;;;;;5114443;28;20260;-65
2021/08/28 03:18:36;;;;;;;4.03;2.90;;;12.90;99.90;;;;;;5114364;28;20167;-66
2021/08/28 03:21:02;;;;;;;4.13;3.72;;;12.90;99.90;;;;;;5114411;28;20196;-65
2021/08/28 03:23:30;;;;;;;3.67;3.22;;;12.80;99.90;;;;;;5114304;28;20183;-65
2021/08/28 03:25:57;;;;;;;4.32;3.85;;;12.70;99.90;;;;;;5114030;28;20272;-65
2021/08/28 03:28:24;;;;;;;7.35;3.58;;;12.60;99.90;;;;;;5114289;28;20187;-65
2021/08/28 03:30:51;;;;;;;6.95;3.35;;;12.60;99.90;;;;;;5114414;28;20714;-65
2021/08/28 03:33:19;;;;;;;9.20;4.20;;;12.60;99.90;;;;;;5114226;28;20195;-65
2021/08/28 03:35:49;;;;;;;4.50;4.07;;;12.50;99.90;;;;;;5114263;28;20736;-65
2021/08/28 03:38:15;;;;;;;4.00;3.53;;;12.50;99.90;;;;;;5147302;27;20183;-65
2021/08/28 03:40:43;;;;;;;4.60;4.10;;;12.40;99.90;;;;;;5112784;28;20191;-65
2021/08/28 03:43:09;;;;;;;4.25;3.85;;;12.30;99.90;;;;;;5114093;28;20201;-66
2021/08/28 03:45:34;;;;;;;5.68;4.25;;;12.30;99.90;;;;;;5112655;28;20218;-65
2021/08/28 03:48:01;;;;;;;4.57;3.90;;;12.30;99.90;;;;;;5113986;28;20168;-66
2021/08/28 03:50:26;;;;;;;4.00;3.60;;;12.40;99.90;;;;;;5147184;27;20195;-65
2021/08/28 03:52:52;;;;;;;3.87;3.50;;;12.40;99.90;;;;;;5114110;28;20525;-66
2021/08/28 03:55:18;;;;;;;4.33;3.93;;;12.50;99.90;;;;;;5113877;28;20195;-65
2021/08/28 03:57:43;;;;;;;4.33;3.93;;;12.50;99.90;;;;;;5114484;28;20183;-65
2021/08/28 04:00:10;;;;;;;3.60;3.30;;;12.60;99.90;;;;;;5113848;28;20258;-65
2021/08/28 04:02:35;;;;;;;3.75;3.45;;;12.60;99.90;;;;;;5114425;28;20204;-65
2021/08/28 04:05:01;;;;;;;3.20;3.00;;;12.60;99.90;;;;;;5113795;28;20251;-65
2021/08/28 04:07:26;;;;;;;3.70;3.40;;;12.60;99.90;;;;;;5117688;28;20183;-65
2021/08/28 04:09:52;;;;;;;4.23;3.83;;;12.60;99.90;;;;;;5150976;27;20207;-65
2021/08/28 04:12:18;;;;;;;4.20;3.80;;;12.60;99.90;;;;;;5118316;28;20180;-66
2021/08/28 04:14:43;;;;;;;3.60;3.30;;;12.60;99.90;;;;;;5117847;28;20577;-65
2021/08/28 04:17:12;;;;;;;3.40;3.10;;;12.60;99.90;;;;;;5118141;28;20183;-65
2021/08/28 04:19:38;;;;;;;3.35;3.05;;;12.60;99.90;;;;;;5117629;28;20198;-66
2021/08/28 04:22:03;;;;;;;3.67;3.37;;;12.70;99.90;;;;;;5150862;27;20274;-65
2021/08/28 04:24:29;;;;;;;3.63;3.33;;;12.60;99.90;;;;;;5117616;28;20183;-65
2021/08/28 04:26:55;;;;;;;3.70;3.30;;;12.60;99.90;;;;;;5117423;28;20491;-65
2021/08/28 04:29:20;;;;;;;3.37;3.10;;;12.50;99.90;;;;;;5150660;27;20266;-65
2021/08/28 04:31:46;;;;;;;3.93;3.57;;;12.50;99.90;;;;;;5117769;28;20207;-65
2021/08/28 04:34:12;;;;;;;3.80;3.47;;;12.50;99.90;;;;;;5150583;27;20179;-65
2021/08/28 04:36:37;;;;;;;3.10;2.80;;;12.50;99.90;;;;;;5117309;28;20423;-65
2021/08/28 04:39:03;;;;;;;4.17;3.77;;;12.50;99.90;;;;;;5117347;28;20172;-65
2021/08/28 04:41:29;;;;;;;3.70;3.40;;;12.50;99.90;;;;;;5117535;28;20282;-65
2021/08/28 04:43:55;;;;;;;3.80;3.50;;;12.60;99.90;;;;;;5117354;28;20381;-66
2021/08/28 04:46:21;;;;;;;5.20;4.00;;;12.60;99.90;;;;;;5117307;28;20655;-65
2021/08/28 04:48:47;;;;;;;9.03;6.07;;;12.60;99.90;;;;;;5117298;28;20191;-66
2021/08/28 04:51:13;;;;;;;15.63;9.63;;;12.70;99.90;;;;;;5116899;28;20435;-66
2021/08/28 04:53:39;;;;;;;21.83;12.13;;;12.80;99.90;;;;;;5117239;28;20687;-65
2021/08/28 04:56:05;;;;;;;38.10;20.30;;;12.90;99.90;;;;;;5117051;28;20274;-65
2021/08/28 04:58:31;;;;;;;32.67;16.50;;;13.00;99.90;;;;;;5117021;28;20652;-65
2021/08/28 05:00:57;;;;;;;20.02;11.68;;;13.00;99.90;;;;;;5117029;28;20480;-65
2021/08/28 05:03:24;;;;;;;12.23;7.57;;;13.10;99.90;;;;;;5116962;28;20513;-66
2021/08/28 05:05:54;;;;;;;10.95;6.82;;;13.20;99.90;;;;;;5149927;27;20245;-65
2021/08/28 05:08:22;;;;;;;6.20;5.57;;;13.30;99.90;;;;;;5116893;28;20580;-65
2021/08/28 05:10:48;;;;;;;5.93;5.35;;;13.40;99.90;;;;;;5149943;27;20260;-66
2021/08/28 05:13:14;;;;;;;5.80;5.30;;;13.50;99.90;;;;;;5115348;28;20176;-65
2021/08/28 05:15:40;;;;;;;6.27;5.47;;;13.50;99.90;;;;;;5116667;28;20198;-65
2021/08/28 05:18:06;;;;;;;5.60;5.03;;;13.60;99.90;;;;;;5115636;28;20392;-65
2021/08/28 05:20:32;;;;;;;6.07;5.40;;;13.70;99.90;;;;;;5116450;28;20427;-66
2021/08/28 05:22:57;;;;;;;5.97;4.60;;;13.70;99.90;;;;;;5116591;28;20199;-65
2021/08/28 05:25:23;;;;;;;6.47;5.73;;;13.80;99.90;;;;;;5149774;27;20825;-65
2021/08/28 05:27:49;;;;;;;6.07;5.50;;;13.80;99.90;;;;;;5116385;28;20235;-65
2021/08/28 05:30:14;;;;;;;7.50;5.73;;;13.90;99.90;;;;;;5149433;27;20192;-67
2021/08/28 05:32:41;;;;;;;10.00;6.60;;;13.90;99.90;;;;;;5115304;28;20180;-66
2021/08/28 05:35:07;;;;;;;11.20;7.20;;;14.00;99.90;;;;;;5116234;27;20274;-65
2021/08/28 05:37:32;;;;;;;8.10;6.70;;;14.00;99.90;;;;;;5116766;28;20451;-66
2021/08/28 05:39:58;;;;;;;9.40;6.53;;;14.10;99.90;;;;;;5116337;28;20195;-66
2021/08/28 05:42:23;;;;;;;8.30;6.10;;;14.20;99.90;;;;;;5116567;28;20240;-65
2021/08/28 05:44:49;;;;;;;8.70;6.77;;;14.20;99.90;;;;;;5114748;28;20239;-65
2021/08/28 05:47:14;;;;;;;9.60;7.40;;;14.30;99.90;;;;;;5116434;28;20596;-65
2021/08/28 05:49:40;;;;;;;10.93;7.23;;;14.40;99.90;;;;;;5116074;28;20672;-65
2021/08/28 05:52:06;;;;;;;8.63;6.43;;;14.50;99.90;;;;;;5116266;28;20176;-65
2021/08/28 05:54:31;;;;;;;7.07;6.37;;;14.60;99.90;;;;;;5148959;27;20302;-65
2021/08/28 05:56:57;;;;;;;8.07;6.87;;;14.70;99.90;;;;;;5116176;28;20180;-65
2021/08/28 05:59:23;;;;;;;7.47;5.90;;;14.80;99.90;;;;;;5115949;28;20191;-65
2021/08/28 06:01:48;;;;;;;7.40;6.37;;;14.90;99.90;;;;;;5148864;27;20187;-66
2021/08/28 06:04:14;;;;;;;6.30;5.70;;;15.00;99.90;;;;;;5114430;28;20660;-65
2021/08/28 06:06:40;;;;;;;9.00;6.40;;;15.00;99.90;;;;;;5115951;28;20264;-65
2021/08/28 06:09:05;;;;;;;7.50;5.87;;;15.10;99.90;;;;;;5115601;28;20529;-65
2021/08/28 06:11:31;;;;;;;8.17;6.40;;;15.20;99.90;;;;;;5115742;28;20207;-67
2021/08/28 06:13:56;;;;;;;6.80;6.10;;;15.30;99.90;;;;;;5115644;28;20202;-65
2021/08/28 06:16:22;;;;;;;7.80;7.00;;;15.30;99.90;;;;;;5115564;28;20204;-65
2021/08/28 06:18:48;;;;;;;7.33;6.63;;;15.40;99.90;;;;;;5148588;27;20693;-66
2021/08/28 06:21:13;;;;;;;7.43;6.73;;;15.50;99.90;;;;;;5115282;28;20282;-65
2021/08/28 06:23:39;;;;;;;8.10;6.17;;;15.50;99.90;;;;;;5115473;28;20637;-66
2021/08/28 06:26:04;;;;;;;7.77;6.63;;;15.60;99.90;;;;;;5113641;28;20708;-65
2021/08/28 06:28:30;;;;;;;9.40;6.40;;;15.70;99.90;;;;;;5115180;28;20645;-65
2021/08/28 06:30:56;;;;;;;5.60;5.10;;;15.80;99.90;;;;;;5113793;28;20208;-65
2021/08/28 06:33:22;;;;;;;9.13;6.80;;;15.80;99.90;;;;;;5115182;28;20540;-66
2021/08/28 06:35:47;;;;;;;8.77;6.73;;;15.90;99.90;;;;;;5115112;28;20428;-67
2021/08/28 06:38:13;;;;;;;7.80;6.77;;;16.00;99.90;;;;;;5115018;28;20175;-66
2021/08/28 06:40:39;;;;;;;7.10;6.00;;;16.10;99.90;;;;;;5114950;28;20551;-65
2021/08/28 06:43:04;;;;;;;6.97;6.27;;;16.10;99.90;;;;;;5115042;28;20567;-66
2021/08/28 06:45:30;;;;;;;6.87;6.17;;;16.20;99.90;;;;;;5114713;28;20215;-66
2021/08/28 06:47:56;;;;;;;7.70;6.47;;;16.30;99.90;;;;;;5114975;28;20168;-65
2021/08/28 06:50:21;;;;;;;7.93;6.57;;;16.40;99.90;;;;;;5114805;28;20199;-65
2021/08/28 06:52:47;;;;;;;6.60;6.00;;;16.40;99.90;;;;;;5115574;28;20755;-65
2021/08/28 06:55:12;;;;;;;8.60;7.27;;;16.50;99.90;;;;;;5114609;28;20237;-66
2021/08/28 06:57:38;;;;;;;10.27;6.43;;;16.60;99.90;;;;;;5115240;28;20775;-65
2021/08/28 07:00:04;;;;;;;7.17;5.57;;;16.70;99.90;;;;;;5114589;28;20214;-65
2021/08/28 07:02:30;;;;;;;5.67;5.10;;;16.80;99.90;;;;;;5114892;28;20255;-65
2021/08/28 07:04:55;;;;;;;7.60;6.37;;;16.90;99.90;;;;;;5114532;28;20892;-65
2021/08/28 07:07:21;;;;;;;6.97;6.00;;;16.90;99.90;;;;;;5114971;28;20645;-65
2021/08/28 07:09:47;;;;;;;6.50;5.90;;;17.00;99.90;;;;;;5114466;28;20199;-66
2021/08/28 07:12:12;;;;;;;7.03;5.43;;;17.10;99.90;;;;;;5114816;28;20184;-65
2021/08/28 07:14:41;;;;;;;5.47;4.97;;;17.10;99.90;;;;;;5114450;28;20227;-65
2021/08/28 07:17:08;;;;;;;7.13;5.17;;;17.20;99.90;;;;;;5114769;28;20256;-65
2021/08/28 07:19:34;;;;;;;5.57;5.07;;;17.30;99.90;;;;;;5147504;27;20439;-66
2021/08/28 07:21:59;;;;;;;6.87;5.60;;;17.40;99.90;;;;;;5114646;28;20789;-65
2021/08/28 07:24:25;;;;;;;5.83;5.23;;;17.50;99.90;;;;;;5114257;28;20205;-66
2021/08/28 07:26:51;;;;;;;5.40;4.77;;;17.60;99.90;;;;;;5114099;28;20242;-66
2021/08/28 07:29:16;;;;;;;5.43;4.87;;;17.70;99.90;;;;;;5112863;28;20558;-66
2021/08/28 07:31:42;;;;;;;4.87;4.43;;;17.80;99.90;;;;;;5114614;28;20539;-65
2021/08/28 07:34:08;;;;;;;4.87;4.40;;;17.90;99.90;;;;;;5114185;28;20168;-65
2021/08/28 07:36:34;;;;;;;5.50;5.00;;;18.00;99.90;;;;;;5113976;28;20202;-65
2021/08/28 07:39:00;;;;;;;6.27;4.67;;;18.10;99.90;;;;;;5114217;27;20167;-66
2021/08/28 07:41:26;;;;;;;5.23;4.57;;;18.20;99.90;;;;;;5113739;28;20451;-65
2021/08/28 07:43:51;;;;;;;5.83;4.47;;;18.30;99.90;;;;;;5114233;28;20175;-66
2021/08/28 07:46:17;;;;;;;4.93;4.53;;;18.30;99.90;;;;;;5114100;28;20730;-65
2021/08/28 07:48:42;;;;;;;4.30;3.90;;;18.40;99.90;;;;;;5147195;27;20175;-67
2021/08/28 07:51:08;;;;;;;6.70;4.40;;;18.40;99.90;;;;;;5114086;28;20286;-65
2021/08/28 07:53:34;;;;;;;4.20;3.80;;;18.50;99.90;;;;;;5113991;28;20215;-66
2021/08/28 07:55:59;;;;;;;5.80;4.60;;;18.50;99.90;;;;;;5146939;27;20236;-66
2021/08/28 07:58:25;;;;;;;4.53;3.83;;;18.60;99.90;;;;;;5113965;28;20175;-67
2021/08/28 08:00:51;;;;;;;6.43;3.70;;;18.60;99.90;;;;;;5112654;28;20645;-65
2021/08/28 08:03:16;;;;;;;3.73;3.23;;;18.70;99.90;;;;;;5113919;28;20537;-65
2021/08/28 08:05:42;;;;;;;3.70;3.40;;;18.70;99.90;;;;;;5113869;28;20689;-66
2021/08/28 08:08:08;;;;;;;3.63;3.33;;;18.70;99.90;;;;;;5146936;27;20171;-66
2021/08/28 08:10:34;;;;;;;4.07;3.60;;;18.80;99.90;;;;;;5112495;28;20452;-66
2021/08/28 08:12:59;;;;;;;3.80;3.30;;;18.80;99.90;;;;;;5113892;28;20179;-67
2021/08/28 08:15:27;;;;;;;4.00;3.70;;;18.90;99.90;;;;;;5113738;28;20191;-66
2021/08/28 08:17:53;;;;;;;5.80;3.80;;;19.00;99.90;;;;;;5113848;28;20660;-67
2021/08/28 08:20:19;;;;;;;4.17;3.50;;;19.00;99.90;;;;;;5113730;28;20432;-65
2021/08/28 08:22:44;;;;;;;5.23;4.47;;;19.10;99.90;;;;;;5114304;28;20407;-66
2021/08/28 08:25:10;;;;;;;4.20;3.80;;;19.20;99.90;;;;;;5146798;27;20216;-66
2021/08/28 08:27:36;;;;;;;5.17;3.90;;;19.20;99.90;;;;;;5113557;28;20577;-66
2021/08/28 08:30:03;;;;;;;4.90;4.50;;;19.20;99.90;;;;;;5147074;27;20454;-66
2021/08/28 08:32:29;;;;;;;4.87;4.30;;;19.20;99.90;;;;;;5114049;28;20199;-66
2021/08/28 08:34:54;;;;;;;4.10;3.80;;;19.20;99.90;;;;;;5113616;28;20428;-67
2021/08/28 08:37:20;;;;;;;5.40;4.47;;;19.30;99.90;;;;;;5114082;28;20693;-65
2021/08/28 08:39:46;;;;;;;5.10;4.60;;;19.30;99.90;;;;;;5112498;28;20195;-66
2021/08/28 08:42:13;;;;;;;4.67;4.27;;;19.30;99.90;;;;;;5113912;28;20182;-65
2021/08/28 08:44:40;;;;;;;5.80;4.10;;;19.30;99.90;;;;;;5113449;28;20529;-66
2021/08/28 08:47:07;;;;;;;4.10;3.80;;;19.30;99.90;;;;;;5113804;28;20423;-65
2021/08/28 08:49:33;;;;;;;4.30;3.90;;;19.30;99.90;;;;;;5113458;28;20426;-65
2021/08/28 08:51:59;;;;;;;5.50;4.70;;;19.30;99.90;;;;;;5113784;28;20420;-66
2021/08/28 08:54:26;;;;;;;8.33;5.60;;;19.30;99.90;;;;;;5116352;28;20412;-65
2021/08/28 08:56:53;;;;;;;5.03;4.40;;;19.30;99.90;;;;;;5117340;28;20424;-65
2021/08/28 08:59:19;;;;;;;4.93;4.50;;;19.20;99.90;;;;;;5116986;28;20504;-65
2021/08/28 09:01:44;;;;;;;6.00;4.73;;;19.20;99.90;;;;;;5117298;28;20929;-65
2021/08/28 09:04:12;;;;;;;5.07;4.60;;;19.20;99.90;;;;;;5116879;28;20691;-66
2021/08/28 09:06:38;;;;;;;5.40;4.90;;;19.20;99.90;;;;;;5150063;27;20306;-65
2021/08/28 09:09:04;;;;;;;6.20;4.27;;;19.20;99.90;;;;;;5116819;28;20777;-65
2021/08/28 09:11:33;;;;;;;5.23;4.70;;;19.20;99.90;;;;;;5116922;28;20442;-65
2021/08/28 09:14:20;;;;;;;6.43;4.80;;;19.20;99.90;;;;;;5116744;28;20272;-66
2021/08/28 09:16:47;;;;;;;5.37;4.63;;;19.20;99.90;;;;;;5117136;28;20417;-66
2021/08/28 09:19:13;;;;;;;6.07;4.93;;;19.20;99.90;;;;;;5116560;28;20403;-65
2021/08/28 09:21:39;;;;;;;4.97;4.47;;;19.30;99.90;;;;;;5116800;28;20421;-66
2021/08/28 09:24:07;;;;;;;4.43;4.03;;;19.30;99.90;;;;;;5116573;28;20954;-67
2021/08/28 09:26:39;;;;;;;5.90;5.10;;;19.30;99.90;;;;;;5116089;28;20469;-65
2021/08/28 09:29:08;;;;;;;5.13;4.63;;;19.30;99.90;;;;;;5116543;28;20381;-67
2021/08/28 09:31:54;;;;;;;5.30;4.53;;;19.40;99.90;;;;;;5116686;28;20944;-65
2021/08/28 09:34:25;;;;;;;5.27;4.77;;;19.40;99.90;;;;;;5149536;27;20497;-65
2021/08/28 09:37:01;;;;;;;5.67;5.17;;;19.40;99.90;;;;;;5116672;28;20459;-66
2021/08/28 09:39:47;;;;;;;5.03;4.53;;;19.40;99.90;;;;;;5116140;28;20408;-66
2021/08/28 09:42:21;;;;;;;4.60;4.20;;;19.40;99.90;;;;;;5116676;28;20428;-65
2021/08/28 09:44:48;;;;;;;5.47;4.73;;;19.50;99.90;;;;;;5116207;28;20425;-67
2021/08/28 09:47:16;;;;;;;5.53;5.03;;;19.50;99.90;;;;;;5149567;27;20415;-66
2021/08/28 09:49:47;;;;;;;5.63;5.03;;;19.50;99.90;;;;;;5116016;28;20826;-66
2021/08/28 09:52:20;;;;;;;6.97;6.30;;;19.50;99.90;;;;;;5147742;27;20773;-66
2021/08/28 09:54:46;;;;;;;6.80;6.10;;;19.50;99.90;;;;;;5099581;28;20460;-66
2021/08/28 09:57:12;;;;;;;4.93;4.50;;;19.60;99.90;;;;;;5093793;28;20423;-67
2021/08/28 09:59:38;;;;;;;5.23;4.73;;;19.60;99.90;;;;;;5093878;28;20801;-66
2021/08/28 10:02:10;;;;;;;6.70;6.00;;;19.60;99.90;;;;;;5095725;28;20415;-66
2021/08/28 10:04:57;;;;;;;5.83;5.33;;;19.70;99.90;;;;;;5127645;27;20442;-66
2021/08/28 10:07:22;;;;;;;6.93;6.23;;;19.70;99.90;;;;;;5095692;28;20780;-65
2021/08/28 10:09:52;;;;;;;6.63;5.40;;;19.70;99.90;;;;;;5095196;28;20421;-65
2021/08/28 10:12:18;;;;;;;6.53;5.23;;;19.70;99.90;;;;;;5095205;28;20197;-67
2021/08/28 10:14:44;;;;;;;6.17;5.57;;;19.70;99.90;;;;;;5093837;28;20439;-66
2021/08/28 10:17:11;;;;;;;5.70;5.10;;;19.70;99.90;;;;;;5093930;28;20421;-65
2021/08/28 10:19:37;;;;;;;5.83;5.17;;;19.70;99.90;;;;;;5095052;28;20205;-66
2021/08/28 10:22:03;;;;;;;6.07;5.37;;;19.70;99.90;;;;;;5095326;28;20472;-66
2021/08/28 10:24:29;;;;;;;6.67;5.30;;;19.70;99.90;;;;;;5094963;28;20184;-66
2021/08/28 10:26:55;;;;;;;5.40;4.90;;;19.70;99.90;;;;;;5094700;28;20491;-66
2021/08/28 10:29:21;;;;;;;6.20;5.60;;;19.80;99.90;;;;;;5094798;28;20392;-66
2021/08/28 10:31:47;;;;;;;6.70;6.00;;;19.80;99.90;;;;;;5095087;28;20421;-66
2021/08/28 10:34:14;;;;;;;6.03;5.43;;;19.80;99.90;;;;;;5094760;28;20448;-66
2021/08/28 10:36:39;;;;;;;6.63;5.13;;;19.80;99.90;;;;;;5093533;28;20775;-67
2021/08/28 10:39:06;;;;;;;6.43;5.80;;;19.80;99.90;;;;;;5094734;28;20453;-68
2021/08/28 10:41:33;;;;;;;7.10;6.07;;;19.80;99.90;;;;;;5093422;28;20213;-66
2021/08/28 10:43:59;;;;;;;6.90;6.30;;;19.80;99.90;;;;;;5094649;28;20585;-66
2021/08/28 10:46:29;;;;;;;10.17;6.00;;;19.80;99.90;;;;;;5094735;28;20535;-66
2021/08/28 10:48:57;;;;;;;6.53;5.93;;;19.80;99.90;;;;;;5094675;28;20419;-65
2021/08/28 10:51:31;;;;;;;6.53;5.90;;;19.80;99.90;;;;;;5094703;28;20450;-66
2021/08/28 10:54:05;;;;;;;7.20;6.50;;;19.80;99.90;;;;;;5094473;28;20434;-67
2021/08/28 10:56:45;;;;;;;6.10;5.50;;;19.80;99.90;;;;;;5094598;28;20441;-67
2021/08/28 10:59:21;;;;;;;6.93;5.60;;;19.80;99.90;;;;;;5094337;28;20919;-65
2021/08/28 11:01:56;;;;;;;5.67;5.13;;;19.80;99.90;;;;;;5094596;28;20428;-66
2021/08/28 11:04:34;;;;;;;7.07;5.83;;;19.90;99.90;;;;;;5094186;28;20414;-65
2021/08/28 11:07:22;;;;;;;6.63;5.43;;;19.90;99.90;;;;;;5093101;28;20487;-66
2021/08/28 11:10:05;;;;;;;6.20;5.60;;;19.90;99.90;;;;;;5094261;28;20433;-66
2021/08/28 11:12:48;;;;;;;6.67;6.00;;;19.90;99.90;;;;;;5127294;27;20492;-66
2021/08/28 11:15:28;;;;;;;5.87;5.23;;;19.90;99.90;;;;;;5093435;28;20430;-65
2021/08/28 11:17:57;;;;;;;5.77;5.20;;;19.90;99.90;;;;;;5094024;28;20406;-67
2021/08/28 11:20:34;;;;;;;6.33;5.80;;;19.90;99.90;;;;;;5093958;28;20818;-67
2021/08/28 11:23:04;;;;;;;6.90;5.70;;;19.90;99.90;;;;;;5126826;27;20927;-66
2021/08/28 11:25:31;;;;;;;6.10;5.50;;;19.90;99.90;;;;;;5093774;28;20513;-67
2021/08/28 11:27:59;;;;;;;5.97;5.40;;;19.90;99.90;;;;;;5092807;28;20469;-66
2021/08/28 11:30:46;;;;;;;6.27;4.73;;;20.00;99.90;;;;;;5093941;28;20428;-66
2021/08/28 11:33:24;;;;;;;5.67;4.63;;;20.00;99.90;;;;;;5093823;28;20423;-66
2021/08/28 11:35:56;;;;;;;5.20;4.63;;;20.00;99.90;;;;;;5093960;28;20993;-66
2021/08/28 11:38:36;;;;;;;5.03;4.17;;;20.10;99.90;;;;;;5093818;28;20422;-65
2021/08/28 11:41:06;;;;;;;4.30;3.70;;;20.10;99.90;;;;;;5092413;28;20468;-66
2021/08/28 11:43:35;;;;;;;3.90;3.60;;;20.20;99.90;;;;;;5093821;28;20403;-65
2021/08/28 11:46:07;;;;;;;5.20;4.03;;;20.20;99.90;;;;;;5093731;28;20471;-65
2021/08/28 11:48:37;;;;;;;5.10;3.90;;;20.30;99.90;;;;;;5093815;28;20444;-67
2021/08/28 11:51:11;;;;;;;4.90;4.33;;;20.30;99.90;;;;;;5093746;28;21056;-65
2021/08/28 11:53:41;;;;;;;4.50;3.93;;;20.30;99.90;;;;;;5093802;28;20749;-66
2021/08/28 11:56:30;;;;;;;3.83;3.40;;;20.40;99.90;;;;;;5092426;28;20454;-67
2021/08/28 11:59:02;;;;;;;4.47;3.90;;;20.50;99.90;;;;;;5096705;28;20417;-66
2021/08/28 12:01:34;;;;;;;3.70;3.37;;;20.50;99.90;;;;;;5094685;28;20459;-67
2021/08/28 12:04:05;;;;;;;4.00;3.60;;;20.50;99.90;;;;;;5143436;27;20425;-65
2021/08/28 12:06:32;;;;;;;3.43;3.10;;;20.50;99.90;;;;;;5146961;27;20515;-67
2021/08/28 12:08:58;;;;;;;3.20;2.87;;;20.50;99.90;;;;;;5100517;28;20884;-66
2021/08/28 12:11:24;;;;;;;3.50;3.07;;;20.60;99.90;;;;;;5108119;28;20523;-66
2021/08/28 12:13:53;;;;;;;3.33;2.90;;;20.60;99.90;;;;;;5104100;28;20405;-65
2021/08/28 12:16:33;;;;;;;3.57;3.30;;;20.60;99.90;;;;;;5092186;28;20455;-65
2021/08/28 12:19:11;;;;;;;3.10;2.80;;;20.60;99.90;;;;;;5093502;28;20415;-67
2021/08/28 12:21:39;;;;;;;3.03;2.73;;;20.50;99.90;;;;;;5093771;28;20769;-66
2021/08/28 12:24:13;;;;;;;3.10;2.77;;;20.60;99.90;;;;;;5126229;28;20497;-66
2021/08/28 12:26:40;;;;;;;2.67;2.47;;;20.50;99.90;;;;;;5099945;28;20522;-68
2021/08/28 12:29:05;;;;;;;3.47;3.03;;;20.50;99.90;;;;;;5117579;28;20409;-67
2021/08/28 12:31:32;;;;;;;3.27;2.97;;;20.60;99.90;;;;;;5117507;28;20964;-67
2021/08/28 12:34:17;;;;;;;3.00;2.80;;;20.60;99.90;;;;;;5117381;28;20174;-67
2021/08/28 12:36:46;;;;;;;2.57;2.37;;;20.60;99.90;;;;;;5117944;28;20429;-66
2021/08/28 12:39:13;;;;;;;2.90;2.70;;;20.60;99.90;;;;;;5117002;28;20418;-67
2021/08/28 12:41:39;;;;;;;2.47;2.27;;;20.50;99.90;;;;;;5117682;28;20526;-65
2021/08/28 12:44:06;;;;;;;3.47;2.70;;;20.60;99.90;;;;;;5116865;28;20439;-66
2021/08/28 12:46:34;;;;;;;2.77;2.57;;;20.50;99.90;;;;;;5116953;28;20520;-66
2021/08/28 12:49:13;;;;;;;3.30;3.03;;;20.50;99.90;;;;;;5117273;28;20407;-66
2021/08/28 12:52:03;;;;;;;2.53;2.33;;;20.50;99.90;;;;;;5115827;28;20442;-66